Terminal Aerodrome Forecast
Issued by NWS

Current Version | Previous Version | Graphics & Text | Print | Product List | Glossary On
Versions: 1 2 3 4 5 6 7 8 9 10 11 12 13 14 15 16 17 18 19 20 21 22
000
FTUS41 KILN 141800 AAA
TAFLUK
TAF AMD
KLUK 141843Z 1419/1518 22014G24KT P6SM -SHRA OVC035
      TEMPO 1419/1422 SCT015 OVC025
     FM142200 28010G18KT P6SM VCSH OVC018
     FM150100 32010G18KT 5SM -RA BR OVC012
     FM150500 34018G28KT 5SM -RASN BR OVC012
     FM150700 33018G26KT 2SM -SN BR OVC009
     FM151100 33015G25KT P6SM OVC025
     FM151500 32015G24KT P6SM SCT025
     FM151700 32015G22KT P6SM BKN040=

USA.gov is the U.S. government's official web portal to all federal, state and local government web resources and services.